sensor_id;sensor_type;location;lat;lon;timestamp;temperature;humidity
13264;DHT22;6700;51.988;7.646;2022-10-26T00:01:15;9.50;99.90
13264;DHT22;6700;51.988;7.646;2022-10-26T00:03:44;9.60;99.90
13264;DHT22;6700;51.988;7.646;2022-10-26T00:06:15;9.50;99.90
13264;DHT22;6700;51.988;7.646;2022-10-26T00:08:42;9.50;99.90
13264;DHT22;6700;51.988;7.646;2022-10-26T00:11:10;9.60;99.90
13264;DHT22;6700;51.988;7.646;2022-10-26T00:13:38;9.50;99.90
13264;DHT22;6700;51.988;7.646;2022-10-26T00:16:23;9.50;99.90
13264;DHT22;6700;51.988;7.646;2022-10-26T00:18:50;9.50;99.90
13264;DHT22;6700;51.988;7.646;2022-10-26T00:21:17;9.50;99.90
13264;DHT22;6700;51.988;7.646;2022-10-26T00:23:44;9.50;99.90
13264;DHT22;6700;51.988;7.646;2022-10-26T00:26:12;9.50;99.90
13264;DHT22;6700;51.988;7.646;2022-10-26T00:28:38;9.50;99.90
13264;DHT22;6700;51.988;7.646;2022-10-26T00:31:10;9.50;99.90
13264;DHT22;6700;51.988;7.646;2022-10-26T00:33:37;9.50;99.90
13264;DHT22;6700;51.988;7.646;2022-10-26T00:36:05;9.50;99.90
13264;DHT22;6700;51.988;7.646;2022-10-26T00:38:31;9.50;99.90
13264;DHT22;6700;51.988;7.646;2022-10-26T00:40:58;9.60;99.90
13264;DHT22;6700;51.988;7.646;2022-10-26T00:45:56;9.50;99.90
13264;DHT22;6700;51.988;7.646;2022-10-26T00:48:29;9.50;99.90
13264;DHT22;6700;51.988;7.646;2022-10-26T00:50:59;9.50;99.90
13264;DHT22;6700;51.988;7.646;2022-10-26T00:53:27;9.50;99.90
13264;DHT22;6700;51.988;7.646;2022-10-26T00:55:55;9.60;99.90
13264;DHT22;6700;51.988;7.646;2022-10-26T00:58:22;9.60;99.90
13264;DHT22;6700;51.988;7.646;2022-10-26T01:00:50;9.60;99.90
13264;DHT22;6700;51.988;7.646;2022-10-26T01:03:17;9.60;99.90
13264;DHT22;6700;51.988;7.646;2022-10-26T01:05:45;9.60;99.90
13264;DHT22;6700;51.988;7.646;2022-10-26T01:08:15;9.60;99.90
13264;DHT22;6700;51.988;7.646;2022-10-26T01:10:42;9.60;99.90
13264;DHT22;6700;51.988;7.646;2022-10-26T01:13:10;9.70;99.90
13264;DHT22;6700;51.988;7.646;2022-10-26T01:18:32;9.60;99.90
13264;DHT22;6700;51.988;7.646;2022-10-26T01:24:18;9.70;99.90
13264;DHT22;6700;51.988;7.646;2022-10-26T01:29:38;9.70;99.90
13264;DHT22;6700;51.988;7.646;2022-10-26T01:33:05;9.80;99.90
13264;DHT22;6700;51.988;7.646;2022-10-26T01:35:08;9.70;99.90
13264;DHT22;6700;51.988;7.646;2022-10-26T01:37:46;9.80;99.90
13264;DHT22;6700;51.988;7.646;2022-10-26T01:40:22;9.70;99.90
13264;DHT22;6700;51.988;7.646;2022-10-26T01:42:53;9.70;99.90
13264;DHT22;6700;51.988;7.646;2022-10-26T01:45:23;9.70;99.90
13264;DHT22;6700;51.988;7.646;2022-10-26T01:47:51;9.70;99.90
13264;DHT22;6700;51.988;7.646;2022-10-26T01:50:19;9.70;99.90
13264;DHT22;6700;51.988;7.646;2022-10-26T01:52:49;9.70;99.90
13264;DHT22;6700;51.988;7.646;2022-10-26T01:58:22;9.70;99.90
13264;DHT22;6700;51.988;7.646;2022-10-26T02:03:58;9.70;99.90
13264;DHT22;6700;51.988;7.646;2022-10-26T02:06:44;9.60;99.90
13264;DHT22;6700;51.988;7.646;2022-10-26T02:12:06;9.60;99.90
13264;DHT22;6700;51.988;7.646;2022-10-26T02:14:53;9.70;99.90
13264;DHT22;6700;51.988;7.646;2022-10-26T02:17:38;9.70;99.90
13264;DHT22;6700;51.988;7.646;2022-10-26T02:20:12;9.70;99.90
13264;DHT22;6700;51.988;7.646;2022-10-26T02:22:46;9.70;99.90
13264;DHT22;6700;51.988;7.646;2022-10-26T02:25:22;9.70;99.90
13264;DHT22;6700;51.988;7.646;2022-10-26T02:27:54;9.70;99.90
13264;DHT22;6700;51.988;7.646;2022-10-26T02:30:21;9.70;99.90
13264;DHT22;6700;51.988;7.646;2022-10-26T02:32:51;9.70;99.90
13264;DHT22;6700;51.988;7.646;2022-10-26T02:35:22;9.80;99.90
13264;DHT22;6700;51.988;7.646;2022-10-26T02:37:52;9.80;99.90
13264;DHT22;6700;51.988;7.646;2022-10-26T02:40:25;9.80;99.90
13264;DHT22;6700;51.988;7.646;2022-10-26T02:42:53;9.80;99.90
13264;DHT22;6700;51.988;7.646;2022-10-26T02:45:27;9.80;99.90
13264;DHT22;6700;51.988;7.646;2022-10-26T02:47:57;9.80;99.90
13264;DHT22;6700;51.988;7.646;2022-10-26T02:50:32;9.80;99.90
13264;DHT22;6700;51.988;7.646;2022-10-26T02:55:55;9.70;99.90
13264;DHT22;6700;51.988;7.646;2022-10-26T02:58:26;9.70;99.90
13264;DHT22;6700;51.988;7.646;2022-10-26T03:00:54;9.70;99.90
13264;DHT22;6700;51.988;7.646;2022-10-26T03:03:22;9.70;99.90
13264;DHT22;6700;51.988;7.646;2022-10-26T03:05:49;9.70;99.90
13264;DHT22;6700;51.988;7.646;2022-10-26T03:08:15;9.70;99.90
13264;DHT22;6700;51.988;7.646;2022-10-26T03:10:43;9.70;99.90
13264;DHT22;6700;51.988;7.646;2022-10-26T03:13:12;9.70;99.90
13264;DHT22;6700;51.988;7.646;2022-10-26T03:15:39;9.70;99.90
13264;DHT22;6700;51.988;7.646;2022-10-26T03:18:06;9.70;99.90
13264;DHT22;6700;51.988;7.646;2022-10-26T03:20:34;9.70;99.90
13264;DHT22;6700;51.988;7.646;2022-10-26T03:23:00;9.80;99.90
13264;DHT22;6700;51.988;7.646;2022-10-26T03:25:27;9.80;99.90
13264;DHT22;6700;51.988;7.646;2022-10-26T03:27:58;9.80;99.90
13264;DHT22;6700;51.988;7.646;2022-10-26T03:30:26;9.80;99.90
13264;DHT22;6700;51.988;7.646;2022-10-26T03:32:53;9.80;99.90
13264;DHT22;6700;51.988;7.646;2022-10-26T03:35:20;9.80;99.90
13264;DHT22;6700;51.988;7.646;2022-10-26T03:37:47;9.90;99.90
13264;DHT22;6700;51.988;7.646;2022-10-26T03:40:14;9.90;99.90
13264;DHT22;6700;51.988;7.646;2022-10-26T03:42:41;9.90;99.90
13264;DHT22;6700;51.988;7.646;2022-10-26T03:45:08;9.90;99.90
13264;DHT22;6700;51.988;7.646;2022-10-26T03:47:46;9.90;99.90
13264;DHT22;6700;51.988;7.646;2022-10-26T03:50:15;9.90;99.90
13264;DHT22;6700;51.988;7.646;2022-10-26T03:52:43;9.90;99.90
13264;DHT22;6700;51.988;7.646;2022-10-26T03:55:10;9.90;99.90
13264;DHT22;6700;51.988;7.646;2022-10-26T03:57:44;10.00;99.90
13264;DHT22;6700;51.988;7.646;2022-10-26T04:00:12;10.00;99.90
13264;DHT22;6700;51.988;7.646;2022-10-26T04:02:44;10.00;99.90
13264;DHT22;6700;51.988;7.646;2022-10-26T04:05:14;10.00;99.90
13264;DHT22;6700;51.988;7.646;2022-10-26T04:07:42;10.00;99.90
13264;DHT22;6700;51.988;7.646;2022-10-26T04:10:09;10.00;99.90
13264;DHT22;6700;51.988;7.646;2022-10-26T04:12:37;10.00;99.90
13264;DHT22;6700;51.988;7.646;2022-10-26T04:15:05;10.10;99.90
13264;DHT22;6700;51.988;7.646;2022-10-26T04:17:33;10.10;99.90
13264;DHT22;6700;51.988;7.646;2022-10-26T04:19:59;10.10;99.90
13264;DHT22;6700;51.988;7.646;2022-10-26T04:22:26;10.10;99.90
13264;DHT22;6700;51.988;7.646;2022-10-26T04:24:53;10.00;99.90
13264;DHT22;6700;51.988;7.646;2022-10-26T04:27:20;10.00;99.90
13264;DHT22;6700;51.988;7.646;2022-10-26T04:29:47;10.00;99.90
13264;DHT22;6700;51.988;7.646;2022-10-26T04:32:14;10.00;99.90
13264;DHT22;6700;51.988;7.646;2022-10-26T04:34:40;10.00;99.90
13264;DHT22;6700;51.988;7.646;2022-10-26T04:37:07;10.00;99.90
13264;DHT22;6700;51.988;7.646;2022-10-26T04:39:34;10.00;99.90
13264;DHT22;6700;51.988;7.646;2022-10-26T04:42:01;10.00;99.90
13264;DHT22;6700;51.988;7.646;2022-10-26T04:44:27;10.00;99.90
13264;DHT22;6700;51.988;7.646;2022-10-26T04:46:54;9.90;99.90
13264;DHT22;6700;51.988;7.646;2022-10-26T04:49:21;10.00;99.90
13264;DHT22;6700;51.988;7.646;2022-10-26T04:51:48;10.00;99.90
13264;DHT22;6700;51.988;7.646;2022-10-26T04:54:15;10.00;99.90
13264;DHT22;6700;51.988;7.646;2022-10-26T04:56:41;10.00;99.90
13264;DHT22;6700;51.988;7.646;2022-10-26T04:59:08;10.00;99.90
13264;DHT22;6700;51.988;7.646;2022-10-26T05:01:35;10.00;99.90
13264;DHT22;6700;51.988;7.646;2022-10-26T05:04:02;10.00;99.90
13264;DHT22;6700;51.988;7.646;2022-10-26T05:06:29;10.00;99.90
13264;DHT22;6700;51.988;7.646;2022-10-26T05:08:56;10.00;99.90
13264;DHT22;6700;51.988;7.646;2022-10-26T05:11:22;10.00;99.90
13264;DHT22;6700;51.988;7.646;2022-10-26T05:13:49;10.00;99.90
13264;DHT22;6700;51.988;7.646;2022-10-26T05:16:16;10.00;99.90
13264;DHT22;6700;51.988;7.646;2022-10-26T05:18:43;10.00;99.90
13264;DHT22;6700;51.988;7.646;2022-10-26T05:21:09;10.00;99.90
13264;DHT22;6700;51.988;7.646;2022-10-26T05:23:38;10.00;99.90
13264;DHT22;6700;51.988;7.646;2022-10-26T05:26:04;10.00;99.90
13264;DHT22;6700;51.988;7.646;2022-10-26T05:28:31;10.00;99.90
13264;DHT22;6700;51.988;7.646;2022-10-26T05:30:58;10.00;99.90
13264;DHT22;6700;51.988;7.646;2022-10-26T05:33:25;10.00;99.90
13264;DHT22;6700;51.988;7.646;2022-10-26T05:35:55;10.00;99.90
13264;DHT22;6700;51.988;7.646;2022-10-26T05:38:21;10.10;99.90
13264;DHT22;6700;51.988;7.646;2022-10-26T05:40:52;10.10;99.90
13264;DHT22;6700;51.988;7.646;2022-10-26T05:43:21;10.10;99.90
13264;DHT22;6700;51.988;7.646;2022-10-26T05:45:52;10.10;99.90
13264;DHT22;6700;51.988;7.646;2022-10-26T05:48:19;10.10;99.90
13264;DHT22;6700;51.988;7.646;2022-10-26T05:50:46;10.10;99.90
13264;DHT22;6700;51.988;7.646;2022-10-26T05:53:13;10.10;99.90
13264;DHT22;6700;51.988;7.646;2022-10-26T05:55:41;10.10;99.90
13264;DHT22;6700;51.988;7.646;2022-10-26T05:58:12;10.10;99.90
13264;DHT22;6700;51.988;7.646;2022-10-26T06:00:51;10.10;99.90
13264;DHT22;6700;51.988;7.646;2022-10-26T06:03:42;10.10;99.90
13264;DHT22;6700;51.988;7.646;2022-10-26T06:06:13;10.10;99.90
13264;DHT22;6700;51.988;7.646;2022-10-26T06:08:41;10.20;99.90
13264;DHT22;6700;51.988;7.646;2022-10-26T06:11:10;10.20;99.90
13264;DHT22;6700;51.988;7.646;2022-10-26T06:13:37;10.20;99.90
13264;DHT22;6700;51.988;7.646;2022-10-26T06:18:58;10.30;99.90
13264;DHT22;6700;51.988;7.646;2022-10-26T06:24:27;10.30;99.90
13264;DHT22;6700;51.988;7.646;2022-10-26T06:27:11;10.30;99.90
13264;DHT22;6700;51.988;7.646;2022-10-26T06:30:06;10.40;99.90
13264;DHT22;6700;51.988;7.646;2022-10-26T06:32:33;10.40;99.90
13264;DHT22;6700;51.988;7.646;2022-10-26T06:37:48;10.40;99.90
13264;DHT22;6700;51.988;7.646;2022-10-26T06:40:17;10.50;99.90
13264;DHT22;6700;51.988;7.646;2022-10-26T06:42:44;10.40;99.90
13264;DHT22;6700;51.988;7.646;2022-10-26T06:45:31;10.50;99.90
13264;DHT22;6700;51.988;7.646;2022-10-26T06:48:08;10.50;99.90
13264;DHT22;6700;51.988;7.646;2022-10-26T06:50:37;10.50;99.90
13264;DHT22;6700;51.988;7.646;2022-10-26T06:53:19;10.60;99.90
13264;DHT22;6700;51.988;7.646;2022-10-26T06:55:49;10.60;99.90
13264;DHT22;6700;51.988;7.646;2022-10-26T06:58:18;10.70;99.90
13264;DHT22;6700;51.988;7.646;2022-10-26T07:00:48;10.70;99.90
13264;DHT22;6700;51.988;7.646;2022-10-26T07:03:16;10.80;99.90
13264;DHT22;6700;51.988;7.646;2022-10-26T07:05:44;10.80;99.90
13264;DHT22;6700;51.988;7.646;2022-10-26T07:08:11;10.80;99.90
13264;DHT22;6700;51.988;7.646;2022-10-26T07:10:39;10.90;99.90
13264;DHT22;6700;51.988;7.646;2022-10-26T07:13:09;10.90;99.90
13264;DHT22;6700;51.988;7.646;2022-10-26T07:15:38;10.90;99.90
13264;DHT22;6700;51.988;7.646;2022-10-26T07:18:06;11.00;99.90
13264;DHT22;6700;51.988;7.646;2022-10-26T07:20:39;11.00;99.90
13264;DHT22;6700;51.988;7.646;2022-10-26T07:23:07;11.00;99.90
13264;DHT22;6700;51.988;7.646;2022-10-26T07:25:37;11.10;99.90
13264;DHT22;6700;51.988;7.646;2022-10-26T07:28:06;11.10;99.90
13264;DHT22;6700;51.988;7.646;2022-10-26T07:30:38;11.10;99.90
13264;DHT22;6700;51.988;7.646;2022-10-26T07:33:24;11.10;99.90
13264;DHT22;6700;51.988;7.646;2022-10-26T07:35:51;11.20;99.90
13264;DHT22;6700;51.988;7.646;2022-10-26T07:38:20;11.20;99.90
13264;DHT22;6700;51.988;7.646;2022-10-26T07:40:48;11.20;99.90
13264;DHT22;6700;51.988;7.646;2022-10-26T07:43:16;11.30;99.90
13264;DHT22;6700;51.988;7.646;2022-10-26T07:45:42;11.30;99.90
13264;DHT22;6700;51.988;7.646;2022-10-26T07:48:09;11.40;99.90
13264;DHT22;6700;51.988;7.646;2022-10-26T07:50:37;11.40;99.90
13264;DHT22;6700;51.988;7.646;2022-10-26T07:53:04;11.50;99.90
13264;DHT22;6700;51.988;7.646;2022-10-26T07:55:31;11.50;99.90
13264;DHT22;6700;51.988;7.646;2022-10-26T07:57:58;11.60;99.90
13264;DHT22;6700;51.988;7.646;2022-10-26T08:00:27;11.70;99.90
13264;DHT22;6700;51.988;7.646;2022-10-26T08:02:59;11.70;99.90
13264;DHT22;6700;51.988;7.646;2022-10-26T08:05:32;11.70;99.90
13264;DHT22;6700;51.988;7.646;2022-10-26T08:08:12;11.80;99.90
13264;DHT22;6700;51.988;7.646;2022-10-26T08:10:46;11.90;99.90
13264;DHT22;6700;51.988;7.646;2022-10-26T08:13:13;11.90;99.90
13264;DHT22;6700;51.988;7.646;2022-10-26T08:15:41;12.00;99.90
13264;DHT22;6700;51.988;7.646;2022-10-26T08:18:08;12.00;99.90
13264;DHT22;6700;51.988;7.646;2022-10-26T08:20:38;12.10;99.90
13264;DHT22;6700;51.988;7.646;2022-10-26T08:23:11;12.20;99.90
13264;DHT22;6700;51.988;7.646;2022-10-26T08:25:49;12.20;99.90
13264;DHT22;6700;51.988;7.646;2022-10-26T08:28:50;12.30;99.90
13264;DHT22;6700;51.988;7.646;2022-10-26T08:31:43;12.40;99.90
13264;DHT22;6700;51.988;7.646;2022-10-26T08:34:37;12.40;99.90
13264;DHT22;6700;51.988;7.646;2022-10-26T08:37:17;12.60;99.90
13264;DHT22;6700;51.988;7.646;2022-10-26T08:39:46;12.70;99.90
13264;DHT22;6700;51.988;7.646;2022-10-26T08:42:29;12.70;99.90
13264;DHT22;6700;51.988;7.646;2022-10-26T08:45:35;12.70;99.90
13264;DHT22;6700;51.988;7.646;2022-10-26T08:48:12;12.80;99.90
13264;DHT22;6700;51.988;7.646;2022-10-26T08:51:17;12.90;99.90
13264;DHT22;6700;51.988;7.646;2022-10-26T08:54:41;13.10;99.90
13264;DHT22;6700;51.988;7.646;2022-10-26T08:57:38;13.20;99.90
13264;DHT22;6700;51.988;7.646;2022-10-26T09:00:22;13.40;99.90
13264;DHT22;6700;51.988;7.646;2022-10-26T09:02:56;13.50;99.90
13264;DHT22;6700;51.988;7.646;2022-10-26T09:05:33;13.70;99.90
13264;DHT22;6700;51.988;7.646;2022-10-26T09:09:06;13.90;99.90
13264;DHT22;6700;51.988;7.646;2022-10-26T09:12:08;14.00;99.90
13264;DHT22;6700;51.988;7.646;2022-10-26T09:25:21;14.60;99.90
13264;DHT22;6700;51.988;7.646;2022-10-26T09:28:33;14.60;99.90
13264;DHT22;6700;51.988;7.646;2022-10-26T09:31:27;14.60;99.90
13264;DHT22;6700;51.988;7.646;2022-10-26T09:34:30;14.70;99.90
13264;DHT22;6700;51.988;7.646;2022-10-26T09:37:20;14.70;99.90
13264;DHT22;6700;51.988;7.646;2022-10-26T09:43:54;15.00;99.90
13264;DHT22;6700;51.988;7.646;2022-10-26T11:10:04;17.40;99.90
13264;DHT22;6700;51.988;7.646;2022-10-26T11:31:44;17.80;99.90
13264;DHT22;6700;51.988;7.646;2022-10-26T11:55:20;18.50;99.90
13264;DHT22;6700;51.988;7.646;2022-10-26T11:57:49;18.60;99.90
13264;DHT22;6700;51.988;7.646;2022-10-26T12:00:20;18.50;99.90
13264;DHT22;6700;51.988;7.646;2022-10-26T12:03:05;18.50;99.90
13264;DHT22;6700;51.988;7.646;2022-10-26T12:05:48;18.50;99.90
13264;DHT22;6700;51.988;7.646;2022-10-26T12:11:56;18.40;99.90
13264;DHT22;6700;51.988;7.646;2022-10-26T12:15:12;18.50;99.90
13264;DHT22;6700;51.988;7.646;2022-10-26T12:19:01;18.50;99.90
13264;DHT22;6700;51.988;7.646;2022-10-26T12:21:54;18.50;99.90
13264;DHT22;6700;51.988;7.646;2022-10-26T12:25:24;18.50;99.90
13264;DHT22;6700;51.988;7.646;2022-10-26T12:27:54;18.50;99.90
13264;DHT22;6700;51.988;7.646;2022-10-26T12:30:32;18.60;99.90
13264;DHT22;6700;51.988;7.646;2022-10-26T12:35:48;18.70;99.90
13264;DHT22;6700;51.988;7.646;2022-10-26T12:41:58;18.50;99.90
13264;DHT22;6700;51.988;7.646;2022-10-26T12:45:17;18.60;99.90
13264;DHT22;6700;51.988;7.646;2022-10-26T12:48:04;18.60;99.90
13264;DHT22;6700;51.988;7.646;2022-10-26T12:51:40;18.60;99.90
13264;DHT22;6700;51.988;7.646;2022-10-26T12:54:34;18.60;99.90
13264;DHT22;6700;51.988;7.646;2022-10-26T12:57:23;18.60;99.90
13264;DHT22;6700;51.988;7.646;2022-10-26T13:00:03;18.80;99.90
13264;DHT22;6700;51.988;7.646;2022-10-26T13:09:19;18.70;99.90
13264;DHT22;6700;51.988;7.646;2022-10-26T13:12:05;18.60;99.90
13264;DHT22;6700;51.988;7.646;2022-10-26T13:15:19;18.60;99.90
13264;DHT22;6700;51.988;7.646;2022-10-26T13:18:22;18.50;99.90
13264;DHT22;6700;51.988;7.646;2022-10-26T13:21:19;18.60;99.90
13264;DHT22;6700;51.988;7.646;2022-10-26T13:24:13;18.50;99.90
13264;DHT22;6700;51.988;7.646;2022-10-26T13:29:31;18.60;99.90
13264;DHT22;6700;51.988;7.646;2022-10-26T13:32:00;18.50;99.90
13264;DHT22;6700;51.988;7.646;2022-10-26T13:34:41;18.40;99.90
13264;DHT22;6700;51.988;7.646;2022-10-26T13:37:23;18.40;99.90
13264;DHT22;6700;51.988;7.646;2022-10-26T13:39:57;18.40;99.90
13264;DHT22;6700;51.988;7.646;2022-10-26T13:42:53;18.30;99.90
13264;DHT22;6700;51.988;7.646;2022-10-26T13:45:33;18.30;99.90
13264;DHT22;6700;51.988;7.646;2022-10-26T13:48:21;18.30;99.90
13264;DHT22;6700;51.988;7.646;2022-10-26T13:51:30;18.30;99.90
13264;DHT22;6700;51.988;7.646;2022-10-26T13:54:42;18.30;99.90
13264;DHT22;6700;51.988;7.646;2022-10-26T13:57:49;18.20;99.90
13264;DHT22;6700;51.988;7.646;2022-10-26T14:00:35;18.30;99.90
13264;DHT22;6700;51.988;7.646;2022-10-26T14:03:41;18.10;99.90
13264;DHT22;6700;51.988;7.646;2022-10-26T14:06:36;18.10;99.90
13264;DHT22;6700;51.988;7.646;2022-10-26T14:09:16;18.20;99.90
13264;DHT22;6700;51.988;7.646;2022-10-26T14:11:56;18.00;99.90
13264;DHT22;6700;51.988;7.646;2022-10-26T14:14:38;18.00;99.90
13264;DHT22;6700;51.988;7.646;2022-10-26T14:17:24;18.10;99.90
13264;DHT22;6700;51.988;7.646;2022-10-26T14:20:19;17.90;99.90
13264;DHT22;6700;51.988;7.646;2022-10-26T14:23:36;17.90;99.90
13264;DHT22;6700;51.988;7.646;2022-10-26T14:26:36;17.90;99.90
13264;DHT22;6700;51.988;7.646;2022-10-26T14:29:29;17.90;99.90
13264;DHT22;6700;51.988;7.646;2022-10-26T14:32:33;17.90;99.90
13264;DHT22;6700;51.988;7.646;2022-10-26T14:35:32;17.80;99.90
13264;DHT22;6700;51.988;7.646;2022-10-26T14:38:28;18.00;99.90
13264;DHT22;6700;51.988;7.646;2022-10-26T14:41:00;17.80;99.90
13264;DHT22;6700;51.988;7.646;2022-10-26T14:43:44;17.90;99.90
13264;DHT22;6700;51.988;7.646;2022-10-26T14:46:33;17.80;99.90
13264;DHT22;6700;51.988;7.646;2022-10-26T14:49:26;17.90;99.90
13264;DHT22;6700;51.988;7.646;2022-10-26T14:52:30;17.80;99.90
13264;DHT22;6700;51.988;7.646;2022-10-26T14:56:02;17.70;99.90
13264;DHT22;6700;51.988;7.646;2022-10-26T14:58:48;17.70;99.90
13264;DHT22;6700;51.988;7.646;2022-10-26T15:05:24;17.70;99.90
13264;DHT22;6700;51.988;7.646;2022-10-26T15:08:39;17.70;99.90
13264;DHT22;6700;51.988;7.646;2022-10-26T15:11:40;17.70;99.90
13264;DHT22;6700;51.988;7.646;2022-10-26T15:14:34;17.50;99.90
13264;DHT22;6700;51.988;7.646;2022-10-26T15:17:17;17.40;99.90
13264;DHT22;6700;51.988;7.646;2022-10-26T15:20:03;17.50;99.90
13264;DHT22;6700;51.988;7.646;2022-10-26T15:22:36;17.30;99.90
13264;DHT22;6700;51.988;7.646;2022-10-26T15:25:31;17.30;99.90
13264;DHT22;6700;51.988;7.646;2022-10-26T15:28:41;17.20;99.90
13264;DHT22;6700;51.988;7.646;2022-10-26T15:31:34;17.00;99.90
13264;DHT22;6700;51.988;7.646;2022-10-26T15:34:23;17.00;99.90
13264;DHT22;6700;51.988;7.646;2022-10-26T15:37:07;17.00;99.90
13264;DHT22;6700;51.988;7.646;2022-10-26T15:39:44;17.00;99.90
13264;DHT22;6700;51.988;7.646;2022-10-26T15:42:39;16.90;99.90
13264;DHT22;6700;51.988;7.646;2022-10-26T15:45:45;16.70;99.90
13264;DHT22;6700;51.988;7.646;2022-10-26T15:48:46;16.80;99.90
13264;DHT22;6700;51.988;7.646;2022-10-26T15:51:17;16.60;99.90
13264;DHT22;6700;51.988;7.646;2022-10-26T15:54:16;16.60;99.90
13264;DHT22;6700;51.988;7.646;2022-10-26T15:57:11;16.50;99.90
13264;DHT22;6700;51.988;7.646;2022-10-26T16:00:01;16.50;99.90
13264;DHT22;6700;51.988;7.646;2022-10-26T16:02:51;16.40;99.90
13264;DHT22;6700;51.988;7.646;2022-10-26T16:05:42;16.40;99.90
13264;DHT22;6700;51.988;7.646;2022-10-26T16:08:36;16.20;99.90
13264;DHT22;6700;51.988;7.646;2022-10-26T16:11:21;16.30;99.90
13264;DHT22;6700;51.988;7.646;2022-10-26T16:14:03;16.10;99.90
13264;DHT22;6700;51.988;7.646;2022-10-26T16:16:42;16.10;99.90
13264;DHT22;6700;51.988;7.646;2022-10-26T16:19:19;16.00;99.90
13264;DHT22;6700;51.988;7.646;2022-10-26T16:22:13;15.80;99.90
13264;DHT22;6700;51.988;7.646;2022-10-26T16:25:01;15.80;99.90
13264;DHT22;6700;51.988;7.646;2022-10-26T16:27:54;15.60;99.90
13264;DHT22;6700;51.988;7.646;2022-10-26T16:30:30;15.50;99.90
13264;DHT22;6700;51.988;7.646;2022-10-26T16:33:20;15.40;99.90
13264;DHT22;6700;51.988;7.646;2022-10-26T16:36:16;15.30;99.90
13264;DHT22;6700;51.988;7.646;2022-10-26T16:39:01;15.20;99.90
13264;DHT22;6700;51.988;7.646;2022-10-26T16:41:36;15.20;99.90
13264;DHT22;6700;51.988;7.646;2022-10-26T16:44:12;15.00;99.90
13264;DHT22;6700;51.988;7.646;2022-10-26T16:47:10;15.00;99.90
13264;DHT22;6700;51.988;7.646;2022-10-26T16:50:00;14.90;99.90
13264;DHT22;6700;51.988;7.646;2022-10-26T16:52:47;14.90;99.90
13264;DHT22;6700;51.988;7.646;2022-10-26T16:55:30;14.80;99.90
13264;DHT22;6700;51.988;7.646;2022-10-26T16:58:07;14.70;99.90
13264;DHT22;6700;51.988;7.646;2022-10-26T17:00:37;14.60;99.90
13264;DHT22;6700;51.988;7.646;2022-10-26T17:03:09;14.60;99.90
13264;DHT22;6700;51.988;7.646;2022-10-26T17:05:43;14.50;99.90
13264;DHT22;6700;51.988;7.646;2022-10-26T17:09:09;14.50;99.90
13264;DHT22;6700;51.988;7.646;2022-10-26T17:15:14;14.30;99.90
13264;DHT22;6700;51.988;7.646;2022-10-26T17:17:45;14.30;99.90
13264;DHT22;6700;51.988;7.646;2022-10-26T17:20:12;14.20;99.90
13264;DHT22;6700;51.988;7.646;2022-10-26T17:22:40;14.20;99.90
13264;DHT22;6700;51.988;7.646;2022-10-26T17:25:18;14.10;99.90
13264;DHT22;6700;51.988;7.646;2022-10-26T17:28:15;14.20;99.90
13264;DHT22;6700;51.988;7.646;2022-10-26T17:30:49;14.10;99.90
13264;DHT22;6700;51.988;7.646;2022-10-26T17:33:46;14.00;99.90
13264;DHT22;6700;51.988;7.646;2022-10-26T17:36:35;14.00;99.90
13264;DHT22;6700;51.988;7.646;2022-10-26T17:39:15;14.00;99.90
13264;DHT22;6700;51.988;7.646;2022-10-26T17:42:04;13.90;99.90
13264;DHT22;6700;51.988;7.646;2022-10-26T17:44:51;13.90;99.90
13264;DHT22;6700;51.988;7.646;2022-10-26T17:47:33;13.90;99.90
13264;DHT22;6700;51.988;7.646;2022-10-26T17:50:08;13.80;99.90
13264;DHT22;6700;51.988;7.646;2022-10-26T17:52:41;13.80;99.90
13264;DHT22;6700;51.988;7.646;2022-10-26T17:55:26;13.80;99.90
13264;DHT22;6700;51.988;7.646;2022-10-26T17:58:07;13.70;99.90
13264;DHT22;6700;51.988;7.646;2022-10-26T18:00:58;13.70;99.90
13264;DHT22;6700;51.988;7.646;2022-10-26T18:03:34;13.70;99.90
13264;DHT22;6700;51.988;7.646;2022-10-26T18:06:28;13.60;99.90
13264;DHT22;6700;51.988;7.646;2022-10-26T18:09:24;13.60;99.90
13264;DHT22;6700;51.988;7.646;2022-10-26T18:12:08;13.60;99.90
13264;DHT22;6700;51.988;7.646;2022-10-26T18:15:08;13.50;99.90
13264;DHT22;6700;51.988;7.646;2022-10-26T18:17:49;13.50;99.90
13264;DHT22;6700;51.988;7.646;2022-10-26T18:20:34;13.50;99.90
13264;DHT22;6700;51.988;7.646;2022-10-26T18:23:18;13.50;99.90
13264;DHT22;6700;51.988;7.646;2022-10-26T18:26:19;13.50;99.90
13264;DHT22;6700;51.988;7.646;2022-10-26T18:29:22;13.40;99.90
13264;DHT22;6700;51.988;7.646;2022-10-26T18:31:56;13.40;99.90
13264;DHT22;6700;51.988;7.646;2022-10-26T18:34:35;13.40;99.90
13264;DHT22;6700;51.988;7.646;2022-10-26T18:37:04;13.40;99.90
13264;DHT22;6700;51.988;7.646;2022-10-26T18:39:35;13.40;99.90
13264;DHT22;6700;51.988;7.646;2022-10-26T18:42:08;13.40;99.90
13264;DHT22;6700;51.988;7.646;2022-10-26T18:44:38;13.40;99.90
13264;DHT22;6700;51.988;7.646;2022-10-26T18:47:29;13.40;99.90
13264;DHT22;6700;51.988;7.646;2022-10-26T18:50:02;13.40;99.90
13264;DHT22;6700;51.988;7.646;2022-10-26T18:52:37;13.50;99.90
13264;DHT22;6700;51.988;7.646;2022-10-26T18:55:25;13.50;99.90
13264;DHT22;6700;51.988;7.646;2022-10-26T18:58:21;13.60;99.90
13264;DHT22;6700;51.988;7.646;2022-10-26T19:00:53;13.70;99.90
13264;DHT22;6700;51.988;7.646;2022-10-26T19:03:54;13.80;99.90
13264;DHT22;6700;51.988;7.646;2022-10-26T19:06:47;13.90;99.90
13264;DHT22;6700;51.988;7.646;2022-10-26T19:09:34;14.10;99.90
13264;DHT22;6700;51.988;7.646;2022-10-26T19:12:13;14.20;99.90
13264;DHT22;6700;51.988;7.646;2022-10-26T19:14:43;14.20;99.90
13264;DHT22;6700;51.988;7.646;2022-10-26T19:17:15;14.20;99.90
13264;DHT22;6700;51.988;7.646;2022-10-26T19:19:54;14.20;99.90
13264;DHT22;6700;51.988;7.646;2022-10-26T19:22:26;14.20;99.90
13264;DHT22;6700;51.988;7.646;2022-10-26T19:25:00;14.20;99.90
13264;DHT22;6700;51.988;7.646;2022-10-26T19:27:33;14.10;99.90
13264;DHT22;6700;51.988;7.646;2022-10-26T19:30:10;14.00;99.90
13264;DHT22;6700;51.988;7.646;2022-10-26T19:32:57;14.00;99.90
13264;DHT22;6700;51.988;7.646;2022-10-26T19:35:32;13.90;99.90
13264;DHT22;6700;51.988;7.646;2022-10-26T19:38:39;13.80;99.90
13264;DHT22;6700;51.988;7.646;2022-10-26T19:41:20;13.80;99.90
13264;DHT22;6700;51.988;7.646;2022-10-26T19:43:59;13.60;99.90
13264;DHT22;6700;51.988;7.646;2022-10-26T19:46:56;13.70;99.90
13264;DHT22;6700;51.988;7.646;2022-10-26T19:49:37;13.70;99.90
13264;DHT22;6700;51.988;7.646;2022-10-26T19:52:13;13.60;99.90
13264;DHT22;6700;51.988;7.646;2022-10-26T19:54:56;13.60;99.90
13264;DHT22;6700;51.988;7.646;2022-10-26T19:57:38;13.50;99.90
13264;DHT22;6700;51.988;7.646;2022-10-26T20:00:39;13.50;99.90
13264;DHT22;6700;51.988;7.646;2022-10-26T20:03:21;13.50;99.90
13264;DHT22;6700;51.988;7.646;2022-10-26T20:06:06;13.40;99.90
13264;DHT22;6700;51.988;7.646;2022-10-26T20:08:47;13.40;99.90
13264;DHT22;6700;51.988;7.646;2022-10-26T20:11:21;13.40;99.90
13264;DHT22;6700;51.988;7.646;2022-10-26T20:14:08;13.40;99.90
13264;DHT22;6700;51.988;7.646;2022-10-26T20:16:49;13.40;99.90
13264;DHT22;6700;51.988;7.646;2022-10-26T20:19:30;13.40;99.90
13264;DHT22;6700;51.988;7.646;2022-10-26T20:22:14;13.40;99.90